sensor_id;sensor_type;location;lat;lon;timestamp;P1;durP1;ratioP1;P2;durP2;ratioP2
26690;SDS011;14307;51.718;8.938;2023-05-10T00:00:46;57.10;;;43.22;;
26690;SDS011;14307;51.718;8.938;2023-05-10T00:03:12;69.28;;;47.55;;
26690;SDS011;14307;51.718;8.938;2023-05-10T00:05:39;70.78;;;46.85;;
26690;SDS011;14307;51.718;8.938;2023-05-10T00:08:06;71.30;;;48.00;;
26690;SDS011;14307;51.718;8.938;2023-05-10T00:10:33;66.45;;;48.53;;
26690;SDS011;14307;51.718;8.938;2023-05-10T00:12:59;69.90;;;47.38;;
26690;SDS011;14307;51.718;8.938;2023-05-10T00:15:26;64.97;;;45.80;;
26690;SDS011;14307;51.718;8.938;2023-05-10T00:17:53;70.80;;;49.30;;
26690;SDS011;14307;51.718;8.938;2023-05-10T00:20:20;80.15;;;50.28;;
26690;SDS011;14307;51.718;8.938;2023-05-10T00:22:47;72.53;;;50.75;;
26690;SDS011;14307;51.718;8.938;2023-05-10T00:25:13;72.55;;;51.08;;
26690;SDS011;14307;51.718;8.938;2023-05-10T00:27:40;69.25;;;49.90;;
26690;SDS011;14307;51.718;8.938;2023-05-10T00:30:07;55.75;;;41.92;;
26690;SDS011;14307;51.718;8.938;2023-05-10T00:32:34;47.53;;;35.47;;
26690;SDS011;14307;51.718;8.938;2023-05-10T00:35:01;40.42;;;30.08;;
26690;SDS011;14307;51.718;8.938;2023-05-10T00:37:27;34.95;;;29.35;;
26690;SDS011;14307;51.718;8.938;2023-05-10T00:39:54;35.03;;;29.13;;
26690;SDS011;14307;51.718;8.938;2023-05-10T00:42:21;34.00;;;25.83;;
26690;SDS011;14307;51.718;8.938;2023-05-10T00:44:50;29.83;;;24.15;;
26690;SDS011;14307;51.718;8.938;2023-05-10T00:47:17;32.10;;;26.17;;
26690;SDS011;14307;51.718;8.938;2023-05-10T00:49:44;28.70;;;23.30;;
26690;SDS011;14307;51.718;8.938;2023-05-10T00:52:11;27.80;;;22.80;;
26690;SDS011;14307;51.718;8.938;2023-05-10T00:54:38;27.63;;;22.45;;
26690;SDS011;14307;51.718;8.938;2023-05-10T00:57:05;28.95;;;23.70;;
26690;SDS011;14307;51.718;8.938;2023-05-10T00:59:32;26.73;;;20.77;;
26690;SDS011;14307;51.718;8.938;2023-05-10T01:01:59;23.90;;;20.88;;
26690;SDS011;14307;51.718;8.938;2023-05-10T01:04:28;25.45;;;21.58;;
26690;SDS011;14307;51.718;8.938;2023-05-10T01:06:56;24.45;;;21.48;;
26690;SDS011;14307;51.718;8.938;2023-05-10T01:09:23;27.23;;;23.77;;
26690;SDS011;14307;51.718;8.938;2023-05-10T01:11:52;28.30;;;22.98;;
26690;SDS011;14307;51.718;8.938;2023-05-10T01:14:20;29.65;;;25.27;;
26690;SDS011;14307;51.718;8.938;2023-05-10T01:16:48;30.02;;;25.52;;
26690;SDS011;14307;51.718;8.938;2023-05-10T01:41:00;38.60;;;29.98;;
26690;SDS011;14307;51.718;8.938;2023-05-10T01:43:37;41.13;;;29.65;;
26690;SDS011;14307;51.718;8.938;2023-05-10T01:46:16;43.67;;;31.42;;
26690;SDS011;14307;51.718;8.938;2023-05-10T01:48:51;41.92;;;33.65;;
26690;SDS011;14307;51.718;8.938;2023-05-10T01:51:24;43.30;;;32.60;;
26690;SDS011;14307;51.718;8.938;2023-05-10T01:54:02;57.33;;;31.98;;
26690;SDS011;14307;51.718;8.938;2023-05-10T01:56:32;40.63;;;29.02;;
26690;SDS011;14307;51.718;8.938;2023-05-10T01:59:01;39.95;;;29.33;;
26690;SDS011;14307;51.718;8.938;2023-05-10T02:01:32;36.53;;;27.35;;
26690;SDS011;14307;51.718;8.938;2023-05-10T02:04:01;37.03;;;28.83;;
26690;SDS011;14307;51.718;8.938;2023-05-10T02:06:28;33.20;;;27.08;;
26690;SDS011;14307;51.718;8.938;2023-05-10T02:08:58;34.83;;;25.52;;
26690;SDS011;14307;51.718;8.938;2023-05-10T02:11:29;36.03;;;27.75;;
26690;SDS011;14307;51.718;8.938;2023-05-10T02:13:57;35.80;;;24.90;;
26690;SDS011;14307;51.718;8.938;2023-05-10T02:16:27;35.88;;;26.20;;
26690;SDS011;14307;51.718;8.938;2023-05-10T02:18:58;36.13;;;27.48;;
26690;SDS011;14307;51.718;8.938;2023-05-10T02:21:27;22.10;;;19.05;;
26690;SDS011;14307;51.718;8.938;2023-05-10T02:23:55;23.10;;;20.55;;
26690;SDS011;14307;51.718;8.938;2023-05-10T02:26:24;28.35;;;22.38;;
26690;SDS011;14307;51.718;8.938;2023-05-10T02:28:51;22.27;;;19.63;;
26690;SDS011;14307;51.718;8.938;2023-05-10T02:31:20;23.85;;;20.70;;
26690;SDS011;14307;51.718;8.938;2023-05-10T02:33:48;30.80;;;22.90;;
26690;SDS011;14307;51.718;8.938;2023-05-10T02:36:17;32.92;;;23.42;;
26690;SDS011;14307;51.718;8.938;2023-05-10T02:38:45;36.00;;;27.38;;
26690;SDS011;14307;51.718;8.938;2023-05-10T02:41:13;39.75;;;28.80;;
26690;SDS011;14307;51.718;8.938;2023-05-10T02:43:40;39.67;;;27.25;;
26690;SDS011;14307;51.718;8.938;2023-05-10T02:46:09;38.05;;;26.88;;
26690;SDS011;14307;51.718;8.938;2023-05-10T02:48:35;40.67;;;28.75;;
26690;SDS011;14307;51.718;8.938;2023-05-10T02:51:04;48.13;;;30.05;;
26690;SDS011;14307;51.718;8.938;2023-05-10T02:53:34;50.20;;;31.73;;
26690;SDS011;14307;51.718;8.938;2023-05-10T02:56:09;53.20;;;31.52;;
26690;SDS011;14307;51.718;8.938;2023-05-10T02:58:40;50.08;;;31.98;;
26690;SDS011;14307;51.718;8.938;2023-05-10T03:01:06;63.25;;;33.65;;
26690;SDS011;14307;51.718;8.938;2023-05-10T03:03:34;50.38;;;32.20;;
26690;SDS011;14307;51.718;8.938;2023-05-10T03:06:00;57.63;;;35.13;;
26690;SDS011;14307;51.718;8.938;2023-05-10T03:08:27;59.75;;;35.20;;
26690;SDS011;14307;51.718;8.938;2023-05-10T03:11:01;63.35;;;36.53;;
26690;SDS011;14307;51.718;8.938;2023-05-10T03:13:56;61.40;;;35.55;;
26690;SDS011;14307;51.718;8.938;2023-05-10T03:16:46;57.65;;;33.85;;
26690;SDS011;14307;51.718;8.938;2023-05-10T03:19:30;56.88;;;33.58;;
26690;SDS011;14307;51.718;8.938;2023-05-10T03:22:04;57.65;;;32.40;;
26690;SDS011;14307;51.718;8.938;2023-05-10T03:24:36;52.05;;;32.38;;
26690;SDS011;14307;51.718;8.938;2023-05-10T03:27:07;56.45;;;33.50;;
26690;SDS011;14307;51.718;8.938;2023-05-10T03:29:34;54.45;;;32.78;;
26690;SDS011;14307;51.718;8.938;2023-05-10T03:32:03;52.78;;;33.25;;
26690;SDS011;14307;51.718;8.938;2023-05-10T03:34:30;50.85;;;32.13;;
26690;SDS011;14307;51.718;8.938;2023-05-10T03:36:57;56.08;;;33.00;;
26690;SDS011;14307;51.718;8.938;2023-05-10T03:39:27;51.65;;;32.03;;
26690;SDS011;14307;51.718;8.938;2023-05-10T03:41:56;56.25;;;34.38;;
26690;SDS011;14307;51.718;8.938;2023-05-10T03:44:23;61.38;;;35.53;;
26690;SDS011;14307;51.718;8.938;2023-05-10T03:46:50;54.80;;;33.80;;
26690;SDS011;14307;51.718;8.938;2023-05-10T03:49:17;57.85;;;34.25;;
26690;SDS011;14307;51.718;8.938;2023-05-10T03:51:44;55.92;;;34.65;;
26690;SDS011;14307;51.718;8.938;2023-05-10T03:54:10;50.97;;;33.75;;
26690;SDS011;14307;51.718;8.938;2023-05-10T03:56:37;53.80;;;32.83;;
26690;SDS011;14307;51.718;8.938;2023-05-10T03:59:05;65.28;;;38.10;;
26690;SDS011;14307;51.718;8.938;2023-05-10T04:01:34;52.08;;;33.00;;
26690;SDS011;14307;51.718;8.938;2023-05-10T04:04:01;48.45;;;32.47;;
26690;SDS011;14307;51.718;8.938;2023-05-10T04:06:30;42.92;;;29.00;;
26690;SDS011;14307;51.718;8.938;2023-05-10T04:08:57;39.60;;;27.90;;
26690;SDS011;14307;51.718;8.938;2023-05-10T04:11:26;26.90;;;22.17;;
26690;SDS011;14307;51.718;8.938;2023-05-10T04:13:53;30.55;;;22.95;;
26690;SDS011;14307;51.718;8.938;2023-05-10T04:16:19;26.27;;;19.83;;
26690;SDS011;14307;51.718;8.938;2023-05-10T04:18:46;26.58;;;19.98;;
26690;SDS011;14307;51.718;8.938;2023-05-10T04:21:13;28.25;;;20.88;;
26690;SDS011;14307;51.718;8.938;2023-05-10T04:23:40;25.05;;;19.80;;
26690;SDS011;14307;51.718;8.938;2023-05-10T04:26:07;28.27;;;19.63;;
26690;SDS011;14307;51.718;8.938;2023-05-10T04:28:33;27.58;;;20.60;;
26690;SDS011;14307;51.718;8.938;2023-05-10T04:31:08;35.10;;;22.42;;
26690;SDS011;14307;51.718;8.938;2023-05-10T04:33:36;27.58;;;19.80;;
26690;SDS011;14307;51.718;8.938;2023-05-10T04:36:03;27.02;;;20.27;;
26690;SDS011;14307;51.718;8.938;2023-05-10T04:38:30;28.05;;;19.98;;
26690;SDS011;14307;51.718;8.938;2023-05-10T04:41:03;31.85;;;20.38;;
26690;SDS011;14307;51.718;8.938;2023-05-10T04:43:34;29.38;;;18.95;;
26690;SDS011;14307;51.718;8.938;2023-05-10T04:46:02;31.55;;;19.13;;
26690;SDS011;14307;51.718;8.938;2023-05-10T04:48:29;29.80;;;19.92;;
26690;SDS011;14307;51.718;8.938;2023-05-10T04:50:56;21.02;;;15.68;;
26690;SDS011;14307;51.718;8.938;2023-05-10T04:53:23;18.42;;;14.02;;
26690;SDS011;14307;51.718;8.938;2023-05-10T04:55:50;22.25;;;16.67;;
26690;SDS011;14307;51.718;8.938;2023-05-10T04:58:17;22.42;;;17.23;;
26690;SDS011;14307;51.718;8.938;2023-05-10T05:00:43;25.08;;;18.52;;
26690;SDS011;14307;51.718;8.938;2023-05-10T05:03:10;25.17;;;17.90;;
26690;SDS011;14307;51.718;8.938;2023-05-10T05:05:37;25.50;;;18.38;;
26690;SDS011;14307;51.718;8.938;2023-05-10T05:08:04;32.10;;;18.67;;
26690;SDS011;14307;51.718;8.938;2023-05-10T05:10:31;22.15;;;16.05;;
26690;SDS011;14307;51.718;8.938;2023-05-10T05:12:58;19.17;;;14.88;;
26690;SDS011;14307;51.718;8.938;2023-05-10T05:15:24;15.52;;;13.40;;
26690;SDS011;14307;51.718;8.938;2023-05-10T05:17:51;12.27;;;10.95;;
26690;SDS011;14307;51.718;8.938;2023-05-10T05:20:18;12.43;;;11.23;;
26690;SDS011;14307;51.718;8.938;2023-05-10T05:22:45;11.65;;;10.55;;
26690;SDS011;14307;51.718;8.938;2023-05-10T05:25:11;10.10;;;9.18;;
26690;SDS011;14307;51.718;8.938;2023-05-10T05:27:38;7.75;;;7.20;;
26690;SDS011;14307;51.718;8.938;2023-05-10T05:30:07;8.30;;;7.60;;
26690;SDS011;14307;51.718;8.938;2023-05-10T05:32:34;8.95;;;8.15;;
26690;SDS011;14307;51.718;8.938;2023-05-10T05:35:01;7.75;;;6.97;;
26690;SDS011;14307;51.718;8.938;2023-05-10T05:37:27;10.48;;;9.55;;
26690;SDS011;14307;51.718;8.938;2023-05-10T05:39:54;12.27;;;11.23;;
26690;SDS011;14307;51.718;8.938;2023-05-10T05:42:21;8.43;;;7.82;;
26690;SDS011;14307;51.718;8.938;2023-05-10T05:44:47;8.43;;;7.72;;
26690;SDS011;14307;51.718;8.938;2023-05-10T05:47:15;7.35;;;6.72;;
26690;SDS011;14307;51.718;8.938;2023-05-10T05:49:42;7.18;;;6.57;;
26690;SDS011;14307;51.718;8.938;2023-05-10T05:52:08;8.85;;;7.97;;
26690;SDS011;14307;51.718;8.938;2023-05-10T05:54:35;12.45;;;11.15;;
26690;SDS011;14307;51.718;8.938;2023-05-10T05:57:02;10.52;;;9.52;;
26690;SDS011;14307;51.718;8.938;2023-05-10T05:59:28;9.45;;;8.52;;
26690;SDS011;14307;51.718;8.938;2023-05-10T06:01:55;7.72;;;7.00;;
26690;SDS011;14307;51.718;8.938;2023-05-10T06:04:22;9.50;;;6.70;;
26690;SDS011;14307;51.718;8.938;2023-05-10T06:06:49;13.00;;;10.93;;
26690;SDS011;14307;51.718;8.938;2023-05-10T06:09:15;11.07;;;9.85;;
26690;SDS011;14307;51.718;8.938;2023-05-10T06:11:42;11.13;;;9.93;;
26690;SDS011;14307;51.718;8.938;2023-05-10T06:14:08;10.05;;;8.63;;
26690;SDS011;14307;51.718;8.938;2023-05-10T06:16:36;8.80;;;7.82;;
26690;SDS011;14307;51.718;8.938;2023-05-10T06:19:03;10.40;;;8.85;;
26690;SDS011;14307;51.718;8.938;2023-05-10T06:21:29;8.65;;;7.65;;
26690;SDS011;14307;51.718;8.938;2023-05-10T06:23:56;9.32;;;8.43;;
26690;SDS011;14307;51.718;8.938;2023-05-10T06:26:23;11.77;;;8.75;;
26690;SDS011;14307;51.718;8.938;2023-05-10T06:28:50;10.85;;;9.75;;
26690;SDS011;14307;51.718;8.938;2023-05-10T06:31:17;13.93;;;11.27;;
26690;SDS011;14307;51.718;8.938;2023-05-10T06:33:44;17.40;;;13.68;;
26690;SDS011;14307;51.718;8.938;2023-05-10T06:36:11;18.95;;;13.23;;
26690;SDS011;14307;51.718;8.938;2023-05-10T06:38:37;15.80;;;13.15;;
26690;SDS011;14307;51.718;8.938;2023-05-10T06:41:04;18.92;;;11.57;;
26690;SDS011;14307;51.718;8.938;2023-05-10T06:43:31;16.10;;;12.90;;
26690;SDS011;14307;51.718;8.938;2023-05-10T06:45:58;12.27;;;10.70;;
26690;SDS011;14307;51.718;8.938;2023-05-10T06:48:25;12.85;;;10.52;;
26690;SDS011;14307;51.718;8.938;2023-05-10T06:50:52;11.38;;;9.68;;
26690;SDS011;14307;51.718;8.938;2023-05-10T06:53:18;14.25;;;10.90;;
26690;SDS011;14307;51.718;8.938;2023-05-10T06:55:45;11.18;;;8.88;;
26690;SDS011;14307;51.718;8.938;2023-05-10T06:58:12;14.98;;;10.30;;
26690;SDS011;14307;51.718;8.938;2023-05-10T07:00:39;15.05;;;8.82;;
26690;SDS011;14307;51.718;8.938;2023-05-10T07:03:06;10.48;;;7.43;;
26690;SDS011;14307;51.718;8.938;2023-05-10T07:05:34;14.18;;;8.75;;
26690;SDS011;14307;51.718;8.938;2023-05-10T07:08:01;8.68;;;7.07;;
26690;SDS011;14307;51.718;8.938;2023-05-10T07:10:28;9.65;;;8.05;;
26690;SDS011;14307;51.718;8.938;2023-05-10T07:12:54;8.52;;;6.30;;
26690;SDS011;14307;51.718;8.938;2023-05-10T07:15:21;8.45;;;6.43;;
26690;SDS011;14307;51.718;8.938;2023-05-10T07:17:48;9.10;;;6.20;;
26690;SDS011;14307;51.718;8.938;2023-05-10T07:20:15;6.78;;;6.00;;
26690;SDS011;14307;51.718;8.938;2023-05-10T07:22:42;8.77;;;5.25;;
26690;SDS011;14307;51.718;8.938;2023-05-10T07:25:09;7.13;;;5.88;;
26690;SDS011;14307;51.718;8.938;2023-05-10T07:27:36;9.98;;;6.07;;
26690;SDS011;14307;51.718;8.938;2023-05-10T07:30:03;10.25;;;7.43;;
26690;SDS011;14307;51.718;8.938;2023-05-10T07:32:30;9.80;;;8.40;;
26690;SDS011;14307;51.718;8.938;2023-05-10T07:34:57;11.05;;;8.88;;
26690;SDS011;14307;51.718;8.938;2023-05-10T07:37:24;12.68;;;7.88;;
26690;SDS011;14307;51.718;8.938;2023-05-10T07:39:51;13.25;;;9.02;;
26690;SDS011;14307;51.718;8.938;2023-05-10T07:42:17;15.10;;;9.05;;
26690;SDS011;14307;51.718;8.938;2023-05-10T07:44:44;9.90;;;8.90;;
26690;SDS011;14307;51.718;8.938;2023-05-10T07:47:11;11.77;;;9.98;;
26690;SDS011;14307;51.718;8.938;2023-05-10T07:49:38;13.35;;;9.98;;
26690;SDS011;14307;51.718;8.938;2023-05-10T07:52:04;15.40;;;9.98;;
26690;SDS011;14307;51.718;8.938;2023-05-10T07:54:31;13.25;;;9.82;;
26690;SDS011;14307;51.718;8.938;2023-05-10T07:56:59;13.45;;;10.48;;
26690;SDS011;14307;51.718;8.938;2023-05-10T07:59:26;13.25;;;10.65;;
26690;SDS011;14307;51.718;8.938;2023-05-10T08:01:52;13.50;;;9.80;;
26690;SDS011;14307;51.718;8.938;2023-05-10T08:04:19;17.95;;;11.80;;
26690;SDS011;14307;51.718;8.938;2023-05-10T08:06:46;12.57;;;8.82;;
26690;SDS011;14307;51.718;8.938;2023-05-10T08:09:13;15.73;;;11.23;;
26690;SDS011;14307;51.718;8.938;2023-05-10T08:11:39;13.30;;;11.43;;
26690;SDS011;14307;51.718;8.938;2023-05-10T08:14:06;12.60;;;11.43;;
26690;SDS011;14307;51.718;8.938;2023-05-10T08:16:33;17.38;;;12.60;;
26690;SDS011;14307;51.718;8.938;2023-05-10T08:19:00;19.85;;;13.95;;
26690;SDS011;14307;51.718;8.938;2023-05-10T08:21:27;20.85;;;14.18;;
26690;SDS011;14307;51.718;8.938;2023-05-10T08:23:54;18.63;;;14.73;;
26690;SDS011;14307;51.718;8.938;2023-05-10T08:26:21;20.58;;;14.60;;
26690;SDS011;14307;51.718;8.938;2023-05-10T08:28:47;20.10;;;14.68;;
26690;SDS011;14307;51.718;8.938;2023-05-10T08:31:15;20.90;;;16.45;;
26690;SDS011;14307;51.718;8.938;2023-05-10T08:33:42;19.60;;;16.85;;
26690;SDS011;14307;51.718;8.938;2023-05-10T08:36:10;21.95;;;18.92;;
26690;SDS011;14307;51.718;8.938;2023-05-10T08:38:37;20.98;;;17.35;;
26690;SDS011;14307;51.718;8.938;2023-05-10T08:41:04;23.80;;;18.85;;
26690;SDS011;14307;51.718;8.938;2023-05-10T08:43:32;21.45;;;16.45;;
26690;SDS011;14307;51.718;8.938;2023-05-10T08:46:00;20.40;;;15.63;;
26690;SDS011;14307;51.718;8.938;2023-05-10T08:48:29;18.73;;;14.88;;
26690;SDS011;14307;51.718;8.938;2023-05-10T08:50:57;22.90;;;15.07;;
26690;SDS011;14307;51.718;8.938;2023-05-10T08:53:26;18.83;;;14.43;;
26690;SDS011;14307;51.718;8.938;2023-05-10T08:55:56;15.88;;;11.77;;
26690;SDS011;14307;51.718;8.938;2023-05-10T08:58:23;15.02;;;12.10;;
26690;SDS011;14307;51.718;8.938;2023-05-10T09:00:51;17.30;;;12.00;;
26690;SDS011;14307;51.718;8.938;2023-05-10T09:03:18;19.15;;;14.45;;
26690;SDS011;14307;51.718;8.938;2023-05-10T09:05:45;18.98;;;13.43;;
26690;SDS011;14307;51.718;8.938;2023-05-10T09:08:12;26.23;;;14.85;;
26690;SDS011;14307;51.718;8.938;2023-05-10T09:10:42;29.60;;;19.55;;
26690;SDS011;14307;51.718;8.938;2023-05-10T09:13:13;37.17;;;23.95;;
26690;SDS011;14307;51.718;8.938;2023-05-10T09:15:42;38.65;;;24.20;;
26690;SDS011;14307;51.718;8.938;2023-05-10T09:18:10;34.03;;;24.48;;
26690;SDS011;14307;51.718;8.938;2023-05-10T09:20:37;48.45;;;29.45;;
26690;SDS011;14307;51.718;8.938;2023-05-10T09:23:03;39.55;;;26.13;;
26690;SDS011;14307;51.718;8.938;2023-05-10T09:25:31;42.97;;;26.17;;
26690;SDS011;14307;51.718;8.938;2023-05-10T09:27:59;38.97;;;23.60;;
26690;SDS011;14307;51.718;8.938;2023-05-10T09:30:27;43.53;;;26.17;;
26690;SDS011;14307;51.718;8.938;2023-05-10T09:32:55;46.80;;;26.35;;
26690;SDS011;14307;51.718;8.938;2023-05-10T09:35:29;49.25;;;27.92;;
26690;SDS011;14307;51.718;8.938;2023-05-10T09:37:59;42.88;;;26.67;;
26690;SDS011;14307;51.718;8.938;2023-05-10T09:40:29;43.05;;;27.00;;
26690;SDS011;14307;51.718;8.938;2023-05-10T09:45:25;46.85;;;26.98;;
26690;SDS011;14307;51.718;8.938;2023-05-10T09:47:53;47.35;;;27.92;;
26690;SDS011;14307;51.718;8.938;2023-05-10T09:50:20;45.38;;;28.80;;
26690;SDS011;14307;51.718;8.938;2023-05-10T09:52:55;48.97;;;31.48;;
26690;SDS011;14307;51.718;8.938;2023-05-10T09:55:41;48.10;;;30.50;;
26690;SDS011;14307;51.718;8.938;2023-05-10T09:58:12;52.40;;;30.77;;
26690;SDS011;14307;51.718;8.938;2023-05-10T10:00:40;50.63;;;33.25;;
26690;SDS011;14307;51.718;8.938;2023-05-10T10:03:13;49.13;;;31.92;;
26690;SDS011;14307;51.718;8.938;2023-05-10T10:05:42;48.47;;;31.27;;
26690;SDS011;14307;51.718;8.938;2023-05-10T10:08:10;41.28;;;28.40;;
26690;SDS011;14307;51.718;8.938;2023-05-10T10:10:38;42.35;;;30.52;;
26690;SDS011;14307;51.718;8.938;2023-05-10T10:13:07;46.22;;;33.33;;
26690;SDS011;14307;51.718;8.938;2023-05-10T10:15:34;43.63;;;30.83;;
26690;SDS011;14307;51.718;8.938;2023-05-10T10:18:02;50.75;;;34.55;;
26690;SDS011;14307;51.718;8.938;2023-05-10T10:20:32;47.58;;;31.73;;
26690;SDS011;14307;51.718;8.938;2023-05-10T10:22:59;40.25;;;31.48;;
26690;SDS011;14307;51.718;8.938;2023-05-10T10:25:26;41.30;;;32.00;;
26690;SDS011;14307;51.718;8.938;2023-05-10T10:35:42;47.97;;;43.38;;
26690;SDS011;14307;51.718;8.938;2023-05-10T10:38:09;48.08;;;43.38;;
26690;SDS011;14307;51.718;8.938;2023-05-10T10:40:38;44.75;;;40.55;;
26690;SDS011;14307;51.718;8.938;2023-05-10T10:43:24;46.47;;;41.78;;
26690;SDS011;14307;51.718;8.938;2023-05-10T10:46:09;48.03;;;43.03;;
26690;SDS011;14307;51.718;8.938;2023-05-10T10:48:40;43.85;;;39.85;;
26690;SDS011;14307;51.718;8.938;2023-05-10T10:51:07;45.22;;;41.30;;
26690;SDS011;14307;51.718;8.938;2023-05-10T10:53:37;48.55;;;43.88;;
26690;SDS011;14307;51.718;8.938;2023-05-10T10:56:09;45.75;;;41.63;;
26690;SDS011;14307;51.718;8.938;2023-05-10T10:58:38;46.13;;;42.13;;
26690;SDS011;14307;51.718;8.938;2023-05-10T11:01:09;46.05;;;41.88;;
26690;SDS011;14307;51.718;8.938;2023-05-10T11:03:41;44.75;;;40.75;;
26690;SDS011;14307;51.718;8.938;2023-05-10T11:06:41;46.28;;;42.08;;
26690;SDS011;14307;51.718;8.938;2023-05-10T11:09:09;47.85;;;43.47;;
26690;SDS011;14307;51.718;8.938;2023-05-10T11:11:53;50.25;;;45.17;;
26690;SDS011;14307;51.718;8.938;2023-05-10T11:14:24;46.83;;;41.97;;
26690;SDS011;14307;51.718;8.938;2023-05-10T11:16:51;51.28;;;46.35;;
26690;SDS011;14307;51.718;8.938;2023-05-10T11:19:19;52.95;;;47.92;;
26690;SDS011;14307;51.718;8.938;2023-05-10T11:21:50;50.13;;;45.28;;
26690;SDS011;14307;51.718;8.938;2023-05-10T11:24:37;53.25;;;48.05;;
26690;SDS011;14307;51.718;8.938;2023-05-10T11:27:04;46.67;;;42.40;;
26690;SDS011;14307;51.718;8.938;2023-05-10T11:29:31;51.72;;;47.03;;
26690;SDS011;14307;51.718;8.938;2023-05-10T11:31:58;49.58;;;44.50;;
26690;SDS011;14307;51.718;8.938;2023-05-10T11:34:30;49.45;;;44.53;;
26690;SDS011;14307;51.718;8.938;2023-05-10T11:36:59;49.83;;;45.33;;
26690;SDS011;14307;51.718;8.938;2023-05-10T11:39:26;46.08;;;41.55;;
26690;SDS011;14307;51.718;8.938;2023-05-10T11:41:55;48.38;;;44.33;;
26690;SDS011;14307;51.718;8.938;2023-05-10T11:44:22;46.33;;;42.10;;
26690;SDS011;14307;51.718;8.938;2023-05-10T11:46:49;48.10;;;43.50;;
26690;SDS011;14307;51.718;8.938;2023-05-10T11:49:16;47.13;;;42.72;;
26690;SDS011;14307;51.718;8.938;2023-05-10T11:51:43;44.17;;;40.33;;
26690;SDS011;14307;51.718;8.938;2023-05-10T11:54:10;48.83;;;44.38;;
26690;SDS011;14307;51.718;8.938;2023-05-10T11:56:40;40.92;;;37.03;;
26690;SDS011;14307;51.718;8.938;2023-05-10T11:59:07;41.75;;;38.03;;
26690;SDS011;14307;51.718;8.938;2023-05-10T12:01:34;44.22;;;39.95;;
26690;SDS011;14307;51.718;8.938;2023-05-10T12:04:01;44.47;;;40.38;;
26690;SDS011;14307;51.718;8.938;2023-05-10T12:06:30;45.33;;;40.95;;
26690;SDS011;14307;51.718;8.938;2023-05-10T12:08:58;47.88;;;43.08;;
26690;SDS011;14307;51.718;8.938;2023-05-10T12:11:26;53.50;;;42.63;;
26690;SDS011;14307;51.718;8.938;2023-05-10T12:13:54;49.45;;;40.05;;
26690;SDS011;14307;51.718;8.938;2023-05-10T12:16:23;50.47;;;41.13;;
26690;SDS011;14307;51.718;8.938;2023-05-10T12:18:52;45.35;;;39.25;;
26690;SDS011;14307;51.718;8.938;2023-05-10T12:21:22;51.75;;;46.22;;
26690;SDS011;14307;51.718;8.938;2023-05-10T12:23:52;44.17;;;39.85;;
26690;SDS011;14307;51.718;8.938;2023-05-10T12:26:21;48.03;;;43.53;;
26690;SDS011;14307;51.718;8.938;2023-05-10T12:28:49;42.53;;;38.63;;
26690;SDS011;14307;51.718;8.938;2023-05-10T12:31:16;43.83;;;39.75;;
26690;SDS011;14307;51.718;8.938;2023-05-10T12:33:43;45.33;;;40.72;;
26690;SDS011;14307;51.718;8.938;2023-05-10T12:36:12;47.80;;;43.38;;
26690;SDS011;14307;51.718;8.938;2023-05-10T12:38:41;45.72;;;41.35;;
26690;SDS011;14307;51.718;8.938;2023-05-10T12:41:15;47.22;;;42.65;;
26690;SDS011;14307;51.718;8.938;2023-05-10T12:43:43;45.97;;;41.35;;
26690;SDS011;14307;51.718;8.938;2023-05-10T12:46:12;46.78;;;42.17;;
26690;SDS011;14307;51.718;8.938;2023-05-10T12:48:41;45.58;;;41.35;;
26690;SDS011;14307;51.718;8.938;2023-05-10T12:51:09;45.25;;;41.17;;
26690;SDS011;14307;51.718;8.938;2023-05-10T12:53:38;40.90;;;36.97;;
26690;SDS011;14307;51.718;8.938;2023-05-10T12:56:09;35.85;;;32.63;;
26690;SDS011;14307;51.718;8.938;2023-05-10T12:58:36;33.95;;;30.67;;
26690;SDS011;14307;51.718;8.938;2023-05-10T13:01:02;36.63;;;32.75;;
26690;SDS011;14307;51.718;8.938;2023-05-10T13:03:31;37.50;;;33.65;;
26690;SDS011;14307;51.718;8.938;2023-05-10T13:05:58;35.17;;;32.28;;
26690;SDS011;14307;51.718;8.938;2023-05-10T13:08:25;32.13;;;29.98;;
26690;SDS011;14307;51.718;8.938;2023-05-10T13:10:51;30.02;;;28.23;;
26690;SDS011;14307;51.718;8.938;2023-05-10T13:13:18;28.48;;;26.67;;
26690;SDS011;14307;51.718;8.938;2023-05-10T13:15:45;29.98;;;27.77;;
26690;SDS011;14307;51.718;8.938;2023-05-10T13:18:11;27.77;;;25.77;;
26690;SDS011;14307;51.718;8.938;2023-05-10T13:20:38;26.23;;;24.38;;
26690;SDS011;14307;51.718;8.938;2023-05-10T13:23:05;28.25;;;26.17;;
26690;SDS011;14307;51.718;8.938;2023-05-10T13:25:32;26.85;;;24.92;;
26690;SDS011;14307;51.718;8.938;2023-05-10T13:28:00;29.70;;;27.38;;
26690;SDS011;14307;51.718;8.938;2023-05-10T13:30:27;28.60;;;26.60;;
26690;SDS011;14307;51.718;8.938;2023-05-10T13:32:54;25.80;;;24.20;;
26690;SDS011;14307;51.718;8.938;2023-05-10T13:35:21;27.55;;;25.55;;
26690;SDS011;14307;51.718;8.938;2023-05-10T13:37:48;29.65;;;27.63;;
26690;SDS011;14307;51.718;8.938;2023-05-10T13:40:16;29.60;;;27.60;;
26690;SDS011;14307;51.718;8.938;2023-05-10T13:42:43;29.25;;;27.25;;
26690;SDS011;14307;51.718;8.938;2023-05-10T13:45:09;26.52;;;24.65;;
26690;SDS011;14307;51.718;8.938;2023-05-10T13:47:38;27.85;;;25.95;;
26690;SDS011;14307;51.718;8.938;2023-05-10T13:50:05;25.63;;;24.13;;
26690;SDS011;14307;51.718;8.938;2023-05-10T13:52:32;26.23;;;24.52;;
26690;SDS011;14307;51.718;8.938;2023-05-10T13:54:59;28.10;;;26.13;;
26690;SDS011;14307;51.718;8.938;2023-05-10T13:57:25;30.77;;;28.48;;
26690;SDS011;14307;51.718;8.938;2023-05-10T13:59:52;29.10;;;27.20;;
26690;SDS011;14307;51.718;8.938;2023-05-10T14:02:22;31.52;;;29.20;;
26690;SDS011;14307;51.718;8.938;2023-05-10T14:04:49;32.83;;;30.40;;
26690;SDS011;14307;51.718;8.938;2023-05-10T14:07:16;33.47;;;31.00;;
26690;SDS011;14307;51.718;8.938;2023-05-10T14:09:43;32.88;;;30.38;;
26690;SDS011;14307;51.718;8.938;2023-05-10T14:12:10;34.45;;;31.67;;
26690;SDS011;14307;51.718;8.938;2023-05-10T14:14:37;34.35;;;31.67;;
26690;SDS011;14307;51.718;8.938;2023-05-10T14:17:04;33.85;;;31.05;;
26690;SDS011;14307;51.718;8.938;2023-05-10T14:19:30;32.80;;;30.40;;
26690;SDS011;14307;51.718;8.938;2023-05-10T14:22:00;36.55;;;33.60;;
26690;SDS011;14307;51.718;8.938;2023-05-10T14:24:26;35.10;;;32.60;;
26690;SDS011;14307;51.718;8.938;2023-05-10T14:26:53;32.88;;;30.48;;
26690;SDS011;14307;51.718;8.938;2023-05-10T14:29:20;33.22;;;30.65;;
26690;SDS011;14307;51.718;8.938;2023-05-10T14:31:48;34.55;;;31.70;;
26690;SDS011;14307;51.718;8.938;2023-05-10T14:34:15;34.83;;;32.22;;
26690;SDS011;14307;51.718;8.938;2023-05-10T14:36:42;34.70;;;32.15;;
26690;SDS011;14307;51.718;8.938;2023-05-10T14:39:09;35.35;;;32.38;;
26690;SDS011;14307;51.718;8.938;2023-05-10T14:41:38;35.28;;;32.28;;
26690;SDS011;14307;51.718;8.938;2023-05-10T14:44:07;37.45;;;34.28;;
26690;SDS011;14307;51.718;8.938;2023-05-10T14:46:34;34.60;;;31.65;;
26690;SDS011;14307;51.718;8.938;2023-05-10T14:49:01;33.38;;;30.45;;
26690;SDS011;14307;51.718;8.938;2023-05-10T14:51:27;34.35;;;31.13;;
26690;SDS011;14307;51.718;8.938;2023-05-10T14:53:54;32.60;;;29.65;;
26690;SDS011;14307;51.718;8.938;2023-05-10T14:56:21;31.40;;;28.48;;
26690;SDS011;14307;51.718;8.938;2023-05-10T14:58:49;30.05;;;27.42;;
26690;SDS011;14307;51.718;8.938;2023-05-10T15:01:16;29.27;;;26.77;;